Time;durP1;ratioP1;P1;durP2;ratioP2;P2;SDS_P1;SDS_P2;PMS_P1;PMS_P2;Temp;Humidity;BMP_temperature;BMP_pressure;BME280_temperature;BME280_humidity;BME280_pressure;Samples;Min_cycle;Max_cycle;Signal;HPM_P1;HPM_P2
2022/02/08 00:00:08;;;;;;;0.90;0.90;;;;;;;3.44;87.81;101446.22;5072015;28;20619;-73
2022/02/08 00:02:36;;;;;;;2.30;1.23;;;;;;;3.44;87.64;101435.41;5072065;28;20185;-72
2022/02/08 00:05:05;;;;;;;1.37;0.63;;;;;;;3.44;87.60;101438.13;5071859;28;20871;-73
2022/02/08 00:07:32;;;;;;;0.13;0.13;;;;;;;3.43;87.48;101431.06;5072022;28;20170;-72
2022/02/08 00:09:57;;;;;;;3.73;0.70;;;;;;;3.42;87.20;101429.44;5070675;28;20178;-72
2022/02/08 00:12:22;;;;;;;0.00;0.00;;;;;;;3.43;87.19;101439.19;5072287;28;20253;-72
2022/02/08 00:14:48;;;;;;;0.20;0.20;;;;;;;3.43;87.35;101430.25;5071686;28;20175;-72
2022/02/08 00:17:14;;;;;;;1.80;0.40;;;;;;;3.44;87.17;101430.03;5071755;28;20261;-73
2022/02/08 00:19:39;;;;;;;0.70;0.70;;;;;;;3.45;87.18;101426.25;5071726;28;20167;-73
2022/02/08 00:22:04;;;;;;;0.83;0.83;;;;;;;3.46;87.71;101425.19;5071881;28;20607;-73
2022/02/08 00:24:30;;;;;;;0.10;0.10;;;;;;;3.48;88.25;101433.09;5071618;28;20670;-73
2022/02/08 00:26:55;;;;;;;10.50;0.20;;;;;;;3.47;88.06;101428.72;5069798;28;20689;-73
2022/02/08 00:29:21;;;;;;;0.10;0.10;;;;;;;3.47;88.68;101428.72;5071487;28;20793;-73
2022/02/08 00:31:47;;;;;;;3.40;0.80;;;;;;;3.46;89.10;101417.09;5071356;28;20183;-73
2022/02/08 00:34:12;;;;;;;0.63;0.43;;;;;;;3.47;89.71;101417.91;5071422;28;20197;-73
2022/02/08 00:36:38;;;;;;;1.03;1.03;;;;;;;3.45;90.17;101411.94;5071471;28;20228;-72
2022/02/08 00:39:06;;;;;;;0.87;0.80;;;;;;;3.50;90.32;101422.84;5071476;28;20247;-73
2022/02/08 00:41:31;;;;;;;0.90;0.70;;;;;;;3.51;90.23;101413.69;5071147;28;20171;-73
2022/02/08 00:44:05;;;;;;;15.93;1.90;;;;;;;3.54;90.17;101400.50;5071461;28;20537;-72
2022/02/08 00:46:38;;;;;;;0.10;0.10;;;;;;;3.57;89.93;101415.41;5071036;28;20261;-72
2022/02/08 00:49:06;;;;;;;0.57;0.57;;;;;;;3.61;90.05;101415.75;5069819;28;20269;-73
2022/02/08 00:51:54;;;;;;;0.23;0.23;;;;;;;3.59;90.07;101419.50;5071173;28;20194;-73
2022/02/08 00:54:19;;;;;;;0.50;0.50;;;;;;;3.63;89.96;101413.66;5070961;28;20206;-73
2022/02/08 00:56:45;;;;;;;0.33;0.30;;;;;;;3.64;90.16;101418.81;5070779;28;20617;-73
2022/02/08 00:59:10;;;;;;;0.73;0.50;;;;;;;3.67;90.00;101418.31;5071215;28;20232;-73
2022/02/08 01:01:38;;;;;;;0.37;0.30;;;;;;;3.68;89.85;101414.56;5070913;28;20649;-73
2022/02/08 01:04:08;;;;;;;0.90;0.90;;;;;;;3.72;89.65;101418.41;5070853;28;20587;-73
2022/02/08 01:06:33;;;;;;;0.20;0.20;;;;;;;3.78;89.54;101411.22;5070558;28;20738;-72
2022/02/08 01:09:11;;;;;;;7.57;1.87;;;;;;;3.79;89.44;101412.88;5071007;28;20198;-73
2022/02/08 01:11:38;;;;;;;1.30;0.83;;;;;;;3.82;88.72;101409.69;5071021;28;20241;-72
2022/02/08 01:14:03;;;;;;;1.50;1.40;;;;;;;3.87;88.55;101404.34;5070722;28;20289;-73
2022/02/08 01:16:30;;;;;;;1.10;1.00;;;;;;;3.89;88.39;101410.31;5070398;28;20685;-73
2022/02/08 01:18:56;;;;;;;1.37;0.80;;;;;;;3.95;87.96;101409.38;5070625;28;20524;-73
2022/02/08 01:21:23;;;;;;;0.60;0.60;;;;;;;3.98;87.26;101413.47;5070542;28;20167;-73
2022/02/08 01:23:48;;;;;;;1.90;1.60;;;;;;;4.03;87.04;101414.38;5070612;28;20178;-73
2022/02/08 01:26:16;;;;;;;0.80;0.80;;;;;;;4.04;87.18;101426.81;5070186;28;20181;-73
2022/02/08 01:31:10;;;;;;;1.40;1.40;;;;;;;4.01;87.59;101415.69;5070862;28;20694;-72
2022/02/08 01:36:31;;;;;;;1.60;1.27;;;;;;;4.02;87.25;101410.03;5068451;28;20186;-73
2022/02/08 01:39:12;;;;;;;0.43;0.43;;;;;;;4.02;87.35;101414.59;5070417;28;20193;-72
2022/02/08 01:42:21;;;;;;;1.20;0.80;;;;;;;4.04;87.45;101416.00;5070388;28;20170;-73
2022/02/08 01:44:58;;;;;;;4.70;0.93;;;;;;;4.06;87.62;101381.47;5069953;28;20190;-73
2022/02/08 01:47:31;;;;;;;0.77;0.50;;;;;;;4.09;87.83;101413.41;5070377;28;20680;-73
2022/02/08 01:50:12;;;;;;;0.67;0.67;;;;;;;4.12;87.68;101404.78;5070278;28;20185;-73
2022/02/08 01:52:41;;;;;;;2.23;1.60;;;;;;;4.18;86.97;101398.41;5070201;28;20201;-73
2022/02/08 01:55:12;;;;;;;3.40;2.83;;;;;;;4.19;87.20;101385.69;5069989;28;20175;-73
2022/02/08 01:57:38;;;;;;;6.93;2.63;;;;;;;4.25;87.17;101397.44;5070227;28;20174;-72
2022/02/08 02:00:06;;;;;;;3.07;1.53;;;;;;;4.30;87.19;101394.81;5070016;28;20273;-73
2022/02/08 02:02:32;;;;;;;0.77;0.77;;;;;;;4.30;87.13;101386.69;5070592;28;20410;-73
2022/02/08 02:04:57;;;;;;;0.60;0.60;;;;;;;4.27;87.29;101379.88;5069952;28;20283;-74
2022/02/08 02:07:23;;;;;;;0.93;0.93;;;;;;;4.29;88.05;101375.03;5068869;28;20542;-73
2022/02/08 02:09:49;;;;;;;1.33;1.33;;;;;;;4.30;87.83;101373.16;5070026;28;20270;-73
2022/02/08 02:12:15;;;;;;;1.53;1.43;;;;;;;4.35;87.89;101381.38;5070402;28;20257;-72
2022/02/08 02:14:41;;;;;;;17.47;1.10;;;;;;;4.37;88.27;101371.13;5070249;28;20240;-73
2022/02/08 02:17:09;;;;;;;1.60;1.50;;;;;;;4.38;88.02;101360.06;5070080;28;20179;-73
2022/02/08 02:19:35;;;;;;;4.37;1.40;;;;;;;4.41;88.16;101369.56;5069924;28;20170;-73
2022/02/08 02:22:02;;;;;;;3.70;2.30;;;;;;;4.42;88.31;101372.00;5067593;28;20186;-72
2022/02/08 02:24:28;;;;;;;1.83;1.73;;;;;;;4.43;88.84;101360.13;5068663;28;20187;-72
2022/02/08 02:26:56;;;;;;;6.87;1.97;;;;;;;4.46;88.84;101350.69;5070174;28;20615;-72
2022/02/08 02:29:22;;;;;;;4.93;2.03;;;;;;;4.47;88.89;101355.84;5069023;28;20630;-73
2022/02/08 02:31:48;;;;;;;0.63;0.63;;;;;;;4.48;89.53;101353.94;5070013;28;20178;-73
2022/02/08 02:34:19;;;;;;;6.20;1.07;;;;;;;4.51;89.41;101358.88;5070299;28;20669;-73
2022/02/08 02:36:45;;;;;;;1.70;1.40;;;;;;;4.54;89.28;101369.22;5070211;28;20174;-73
2022/02/08 02:39:13;;;;;;;4.20;2.47;;;;;;;4.56;89.15;101358.97;5070193;28;20249;-73
2022/02/08 02:41:41;;;;;;;0.63;0.63;;;;;;;4.57;89.43;101357.88;5070207;28;20719;-73
2022/02/08 02:44:08;;;;;;;3.77;2.17;;;;;;;4.60;89.32;101361.97;5068945;28;20197;-73
2022/02/08 02:46:34;;;;;;;1.27;1.17;;;;;;;4.58;89.44;101354.09;5070122;28;20186;-73
2022/02/08 02:49:00;;;;;;;1.40;0.90;;;;;;;4.59;89.81;101350.34;5072099;28;20560;-73
2022/02/08 02:51:25;;;;;;;3.03;2.10;;;;;;;4.62;90.16;101357.13;5073840;28;20283;-73
2022/02/08 02:53:52;;;;;;;9.20;2.20;;;;;;;4.62;89.99;101359.84;5073767;28;20198;-73
2022/02/08 02:56:17;;;;;;;0.20;0.20;;;;;;;4.63;90.36;101356.06;5073702;28;20640;-73
2022/02/08 02:58:42;;;;;;;1.53;0.90;;;;;;;4.62;91.00;101360.66;5073695;28;20257;-73
2022/02/08 03:03:57;;;;;;;2.37;0.83;;;;;;;4.67;90.98;101357.22;5074109;28;20166;-73
2022/02/08 03:20:04;;;;;;;0.37;0.37;;;;;;;4.51;96.79;101353.47;5073528;28;20220;-73
2022/02/08 03:22:29;;;;;;;0.63;0.33;;;;;;;4.51;97.50;101341.84;5073313;28;20646;-73
2022/02/08 03:24:54;;;;;;;17.00;2.03;;;;;;;4.48;98.27;101324.19;5073322;28;20210;-72
2022/02/08 03:27:20;;;;;;;9.50;1.43;;;;;;;4.46;99.63;101331.75;5073262;28;20531;-73
2022/02/08 03:29:45;;;;;;;2.00;1.43;;;;;;;4.46;100.00;101337.16;5073307;28;20167;-73
2022/02/08 03:32:11;;;;;;;4.20;1.27;;;;;;;4.44;100.00;101345.53;5073257;28;20289;-73
2022/02/08 03:34:37;;;;;;;1.07;1.07;;;;;;;4.40;100.00;101341.69;5073123;28;20269;-73
2022/02/08 03:37:02;;;;;;;3.13;1.80;;;;;;;4.35;100.00;101330.78;5073204;28;20181;-72
2022/02/08 03:39:32;;;;;;;1.87;1.77;;;;;;;4.31;100.00;101332.34;5073056;28;20582;-74
2022/02/08 03:42:06;;;;;;;2.87;1.20;;;;;;;4.28;100.00;101332.84;5073130;28;20246;-73
2022/02/08 03:44:33;;;;;;;0.70;0.70;;;;;;;4.27;100.00;101322.28;5073013;28;20163;-74
2022/02/08 03:47:04;;;;;;;7.17;2.43;;;;;;;4.26;100.00;101323.34;5072862;28;20235;-73
2022/02/08 03:49:30;;;;;;;9.93;1.63;;;;;;;4.27;100.00;101319.56;5073024;28;20165;-73
2022/02/08 03:51:59;;;;;;;10.03;1.63;;;;;;;4.25;100.00;101319.00;5071630;28;20166;-72
2022/02/08 03:54:24;;;;;;;5.80;1.93;;;;;;;4.28;100.00;101310.38;5072820;28;20198;-73
2022/02/08 03:56:50;;;;;;;0.33;0.30;;;;;;;4.29;100.00;101309.31;5073179;28;20653;-72
2022/02/08 03:59:16;;;;;;;2.77;1.67;;;;;;;4.30;100.00;101305.53;5072690;28;20246;-73
2022/02/08 04:06:55;;;;;;;7.23;1.67;;;;;;;4.30;100.00;101305.53;5072764;28;20232;-73
2022/02/08 04:09:20;;;;;;;8.33;3.13;;;;;;;4.28;100.00;101311.19;5072458;28;20223;-73
2022/02/08 04:12:26;;;;;;;8.57;1.53;;;;;;;4.29;100.00;101304.72;5072467;28;20179;-73
2022/02/08 04:38:53;;;;;;;0.63;0.63;;;;;;;4.52;100.00;101279.34;5072091;28;20182;-74
2022/02/08 04:41:26;;;;;;;1.20;1.13;;;;;;;4.54;100.00;101271.81;5071861;28;20699;-73
2022/02/08 04:44:01;;;;;;;0.77;0.77;;;;;;;4.54;100.00;101279.91;5072104;28;20166;-75
2022/02/08 04:48:55;;;;;;;0.70;0.67;;;;;;;4.54;100.00;101279.91;5071640;28;20165;-74
2022/02/08 04:51:37;;;;;;;2.23;2.00;;;;;;;4.54;100.00;101276.41;5071628;28;20630;-74
2022/02/08 04:56:39;;;;;;;0.87;0.87;;;;;;;4.47;100.00;101287.38;5071364;28;20167;-73
2022/02/08 04:59:34;;;;;;;2.00;1.13;;;;;;;4.44;100.00;101266.25;5071423;28;20205;-72
2022/02/08 05:35:46;;;;;;;1.10;0.93;;;;;;;4.53;100.00;101264.75;5070883;28;20220;-74
2022/02/08 05:47:45;;;;;;;1.43;1.27;;;;;;;4.62;100.00;101263.22;5071118;28;20166;-73
2022/02/08 05:55:36;;;;;;;0.90;0.83;;;;;;;4.66;100.00;101247.31;5069089;28;20178;-73
2022/02/08 05:58:03;;;;;;;0.53;0.53;;;;;;;4.67;100.00;101240.84;5070790;28;20228;-76
2022/02/08 06:00:29;;;;;;;0.70;0.70;;;;;;;4.67;100.00;101247.06;5070770;28;20177;-73
2022/02/08 06:02:56;;;;;;;0.57;0.57;;;;;;;4.70;100.00;101238.44;5070579;28;20174;-73
2022/02/08 06:05:25;;;;;;;1.00;1.00;;;;;;;4.71;100.00;101248.19;5069465;28;20581;-73
2022/02/08 06:07:51;;;;;;;1.23;0.87;;;;;;;4.74;100.00;101252.28;5070558;28;20166;-75
2022/02/08 06:10:17;;;;;;;0.33;0.33;;;;;;;4.75;100.00;101238.50;5070603;28;20178;-73
2022/02/08 06:12:51;;;;;;;1.00;0.90;;;;;;;4.78;100.00;101229.06;5070607;28;20193;-73
2022/02/08 06:15:20;;;;;;;1.53;1.20;;;;;;;4.81;100.00;101233.97;5070775;28;20162;-73
2022/02/08 06:17:46;;;;;;;1.77;1.67;;;;;;;4.88;100.00;101233.75;5070623;28;20201;-74
2022/02/08 06:20:12;;;;;;;0.77;0.77;;;;;;;4.92;100.00;101249.25;5070518;28;20294;-73
2022/02/08 06:22:40;;;;;;;0.70;0.70;;;;;;;4.94;100.00;101247.13;5070561;28;20170;-74
2022/02/08 06:25:08;;;;;;;0.87;0.87;;;;;;;4.98;100.00;101247.41;5073956;28;20186;-75
2022/02/08 06:27:34;;;;;;;0.67;0.67;;;;;;;4.99;100.00;101240.94;5074451;28;20178;-73
2022/02/08 06:30:00;;;;;;;1.17;1.07;;;;;;;5.00;100.00;101227.13;5074791;28;20170;-73
2022/02/08 06:32:27;;;;;;;0.80;0.70;;;;;;;5.01;100.00;101226.06;5076868;28;20255;-74
2022/02/08 06:34:55;;;;;;;1.50;1.40;;;;;;;5.05;100.00;101218.22;5075270;28;20683;-73
2022/02/08 06:37:22;;;;;;;0.30;0.30;;;;;;;5.11;100.00;101240.78;5074742;28;20186;-73
2022/02/08 06:39:48;;;;;;;0.77;0.77;;;;;;;5.17;100.00;101232.44;5065956;28;20183;-73
2022/02/08 06:42:13;;;;;;;0.90;0.90;;;;;;;5.25;100.00;101232.00;5069803;28;20680;-72
2022/02/08 06:44:39;;;;;;;1.27;1.17;;;;;;;5.29;100.00;101229.59;5073952;28;20174;-73
2022/02/08 06:47:04;;;;;;;2.73;2.30;;;;;;;5.33;100.00;101217.97;5074032;28;20179;-72
2022/02/08 06:49:30;;;;;;;1.27;1.27;;;;;;;5.41;100.00;101221.28;5074022;28;20557;-73
2022/02/08 06:51:55;;;;;;;1.87;1.77;;;;;;;5.45;100.00;101242.19;5073906;28;20198;-72
2022/02/08 06:54:21;;;;;;;1.97;1.77;;;;;;;5.46;100.00;101254.66;5073764;28;20326;-73
2022/02/08 06:56:47;;;;;;;1.50;1.40;;;;;;;5.52;100.00;101258.25;5073688;28;20577;-72
2022/02/08 06:59:15;;;;;;;2.47;2.23;;;;;;;5.56;100.00;101259.38;5072473;28;20181;-73
2022/02/08 07:01:41;;;;;;;2.83;2.53;;;;;;;5.60;100.00;101253.16;5073741;28;20178;-73
2022/02/08 07:04:14;;;;;;;2.93;1.93;;;;;;;5.61;100.00;101256.69;5073974;28;20186;-72
2022/02/08 07:06:39;;;;;;;2.60;2.40;;;;;;;5.65;100.00;101274.91;5073509;28;20182;-73
2022/02/08 07:09:04;;;;;;;3.17;2.87;;;;;;;5.68;100.00;101268.97;5073610;28;20163;-74
2022/02/08 07:11:30;;;;;;;2.23;2.13;;;;;;;5.73;100.00;101268.19;5073529;28;20521;-73
2022/02/08 07:13:57;;;;;;;1.23;1.23;;;;;;;5.75;100.00;101290.44;5073711;28;20206;-74
2022/02/08 07:16:22;;;;;;;4.87;2.67;;;;;;;5.75;100.00;101290.44;5073428;28;20170;-73
2022/02/08 07:18:48;;;;;;;2.53;1.87;;;;;;;5.75;100.00;101289.59;5073441;28;20177;-73
2022/02/08 07:21:13;;;;;;;2.50;2.30;;;;;;;5.77;100.00;101290.97;5072094;28;20170;-73
2022/02/08 07:23:39;;;;;;;3.60;3.33;;;;;;;5.81;100.00;101296.72;5073358;28;20249;-72
2022/02/08 07:26:05;;;;;;;2.53;2.33;;;;;;;5.83;100.00;101289.16;5073015;28;20521;-72
2022/02/08 07:28:31;;;;;;;2.47;2.30;;;;;;;5.84;100.00;101297.03;5073198;28;20183;-71
2022/02/08 07:31:03;;;;;;;2.67;2.47;;;;;;;5.87;100.00;101293.78;5073057;28;20476;-72
2022/02/08 07:33:30;;;;;;;2.90;2.70;;;;;;;5.92;100.00;101287.59;5072925;28;20198;-72
2022/02/08 07:38:24;;;;;;;2.23;2.07;;;;;;;5.95;100.00;101297.97;5072593;28;20170;-72
2022/02/08 07:43:16;;;;;;;2.67;2.47;;;;;;;5.99;100.00;101293.63;5072759;28;20173;-72
2022/02/08 07:45:42;;;;;;;3.47;3.23;;;;;;;6.01;100.00;101294.19;5072299;28;20205;-72
2022/02/08 07:48:08;;;;;;;4.63;4.33;;;;;;;6.01;100.00;101290.66;5072497;28;20175;-72
2022/02/08 07:50:38;;;;;;;5.93;5.40;;;;;;;6.03;100.00;101299.34;5072316;28;20332;-72
2022/02/08 07:53:05;;;;;;;4.67;4.30;;;;;;;6.04;100.00;101290.97;5072331;28;20206;-72
2022/02/08 07:55:31;;;;;;;4.97;4.30;;;;;;;6.06;100.00;101298.84;5072135;28;20638;-72
2022/02/08 07:57:56;;;;;;;4.37;3.90;;;;;;;6.08;100.00;101304.84;5072370;28;20497;-72
2022/02/08 08:00:21;;;;;;;5.23;3.97;;;;;;;6.11;100.00;101301.59;5072203;28;20453;-72
2022/02/08 08:02:49;;;;;;;8.67;5.33;;;;;;;6.12;100.00;101295.09;5071239;28;20206;-72
2022/02/08 08:05:14;;;;;;;6.60;5.00;;;;;;;6.11;100.00;101290.75;5071839;28;20179;-72
2022/02/08 08:07:40;;;;;;;2.30;2.17;;;;;;;6.11;100.00;101274.47;5072109;28;20177;-72
2022/02/08 08:10:07;;;;;;;5.97;5.47;;;;;;;6.11;100.00;101269.03;5071913;28;20712;-73
2022/02/08 08:12:34;;;;;;;5.40;5.00;;;;;;;6.12;100.00;101262.53;5071948;28;20175;-72
2022/02/08 08:15:06;;;;;;;3.43;2.57;;;;;;;6.15;100.00;101268.25;5071756;28;20197;-72
2022/02/08 08:17:54;;;;;;;7.70;5.90;;;;;;;6.20;100.00;101272.88;5069417;28;20179;-72
2022/02/08 08:20:19;;;;;;;3.93;3.53;;;;;;;6.21;100.00;101252.81;5070126;28;20181;-72
2022/02/08 08:22:44;;;;;;;5.77;5.23;;;;;;;6.26;100.00;101280.00;5071566;28;20183;-72
2022/02/08 08:25:10;;;;;;;5.00;4.57;;;;;;;6.30;100.00;101269.44;5071846;28;20220;-72
2022/02/08 08:27:35;;;;;;;4.00;3.70;;;;;;;6.32;100.00;101278.13;5071909;28;20175;-72
2022/02/08 08:30:01;;;;;;;4.40;3.50;;;;;;;6.34;100.00;101284.91;5071718;28;20529;-73
2022/02/08 08:32:26;;;;;;;8.23;3.87;;;;;;;6.40;100.00;101283.88;5072059;28;20220;-72
2022/02/08 08:34:51;;;;;;;9.77;6.23;;;;;;;6.42;100.00;101289.03;5071799;28;20201;-73
2022/02/08 08:37:17;;;;;;;5.40;4.70;;;;;;;6.46;100.00;101271.13;5071816;28;20174;-74
2022/02/08 08:39:48;;;;;;;5.03;3.43;;;;;;;6.51;100.00;101296.44;5071912;28;20171;-74
2022/02/08 08:42:30;;;;;;;5.70;5.13;;;;;;;6.56;100.00;101287.50;5070469;28;20206;-75
2022/02/08 08:52:41;;;;;;;4.13;3.30;;;;;;;6.73;100.00;101307.13;5071601;28;20578;-72
2022/02/08 08:55:08;;;;;;;5.83;4.87;;;;;;;6.81;100.00;101311.25;5071507;28;20210;-72
2022/02/08 08:57:33;;;;;;;12.20;4.70;;;;;;;6.89;100.00;101296.31;5071424;28;20181;-73
2022/02/08 09:00:00;;;;;;;4.63;4.23;;;;;;;6.97;100.00;101302.06;5071200;28;20182;-73
2022/02/08 09:02:25;;;;;;;4.43;4.07;;;;;;;7.05;100.00;101301.53;5071214;28;20542;-72
2022/02/08 09:04:52;;;;;;;6.20;5.70;;;;;;;7.10;100.00;101303.47;5071114;28;20174;-72
2022/02/08 09:07:18;;;;;;;4.77;4.37;;;;;;;7.11;100.00;101299.69;5071286;28;20174;-73
2022/02/08 09:09:46;;;;;;;5.83;3.67;;;;;;;7.13;100.00;101320.06;5071152;28;20174;-72
2022/02/08 09:17:55;;;;;;;5.83;5.33;;;;;;;7.25;100.00;101319.81;5069980;28;20194;-72
2022/02/08 09:30:51;;;;;;;4.07;3.10;;;;;;;7.42;100.00;101314.97;5070809;28;20262;-72
2022/02/08 09:33:16;;;;;;;4.30;3.87;;;;;;;7.43;100.00;101308.44;5070828;28;20209;-73
2022/02/08 09:35:43;;;;;;;4.17;3.77;;;;;;;7.46;100.00;101298.94;5070801;28;20202;-72
2022/02/08 09:38:08;;;;;;;3.80;3.47;;;;;;;7.49;100.00;101301.09;5070918;28;20174;-72
2022/02/08 09:40:34;;;;;;;4.80;4.20;;;;;;;7.52;100.00;101299.75;5070839;28;20209;-73
2022/02/08 09:43:02;;;;;;;3.10;2.90;;;;;;;7.55;100.00;101301.94;5070821;28;20531;-72
2022/02/08 09:45:30;;;;;;;6.47;5.87;;;;;;;7.56;100.00;101296.22;5070590;28;20170;-72
2022/02/08 09:48:03;;;;;;;8.37;2.30;;;;;;;7.61;100.00;101292.69;5070737;28;20193;-72
2022/02/08 09:50:32;;;;;;;5.60;5.20;;;;;;;7.64;100.00;101292.16;5070688;28;20517;-73
2022/02/08 09:53:01;;;;;;;11.63;6.20;;;;;;;7.67;100.00;101281.56;5070583;28;20194;-72
2022/02/08 09:55:30;;;;;;;4.07;3.67;;;;;;;7.72;100.00;101300.59;5070401;28;20178;-73
2022/02/08 09:57:57;;;;;;;5.77;5.23;;;;;;;7.74;100.00;101301.13;5068605;28;20174;-73
2022/02/08 10:00:23;;;;;;;2.83;2.63;;;;;;;7.76;100.00;101298.97;5070460;28;20261;-72
2022/02/08 10:02:49;;;;;;;4.27;3.73;;;;;;;7.81;100.00;101292.72;5070688;28;20181;-72
2022/02/08 10:05:14;;;;;;;3.70;2.90;;;;;;;7.82;100.00;101324.28;5070549;28;20584;-72
2022/02/08 10:07:41;;;;;;;3.30;3.10;;;;;;;7.85;100.00;101321.00;5070588;28;20166;-72
2022/02/08 10:10:08;;;;;;;4.90;3.43;;;;;;;7.87;100.00;101318.84;5069455;28;20173;-73
2022/02/08 10:12:47;;;;;;;5.27;4.63;;;;;;;7.86;100.00;101321.81;5069832;28;20186;-72
2022/02/08 10:23:08;;;;;;;4.40;4.10;;;;;;;7.91;100.00;101306.31;5070069;28;20222;-73
2022/02/08 10:25:48;;;;;;;5.50;3.93;;;;;;;7.94;100.00;101316.63;5069720;28;20197;-72
2022/02/08 10:28:28;;;;;;;3.67;3.23;;;;;;;8.01;100.00;101310.94;5069975;28;20178;-72
2022/02/08 10:39:02;;;;;;;3.17;2.97;;;;;;;8.16;100.00;101321.00;5070238;28;20177;-72
2022/02/08 10:41:27;;;;;;;2.40;2.30;;;;;;;8.15;100.00;101309.31;5069799;28;20208;-72
2022/02/08 10:44:05;;;;;;;7.17;4.57;;;;;;;8.14;100.00;101315.84;5069945;28;20186;-72
2022/02/08 10:46:31;;;;;;;3.50;2.73;;;;;;;8.13;100.00;101332.44;5069875;28;20190;-72
2022/02/08 10:49:14;;;;;;;4.37;3.97;;;;;;;8.13;100.00;101327.81;5069706;28;20171;-72
2022/02/08 10:51:51;;;;;;;2.20;2.00;;;;;;;8.15;100.00;101330.25;5069817;28;20194;-72
2022/02/08 10:54:32;;;;;;;2.83;2.63;;;;;;;8.16;100.00;101334.59;5069763;28;20419;-72
2022/02/08 10:57:05;;;;;;;3.07;2.83;;;;;;;8.15;100.00;101324.81;5069659;28;20227;-72
2022/02/08 10:59:36;;;;;;;3.57;3.33;;;;;;;8.18;100.00;101333.25;5069734;28;20407;-72
2022/02/08 11:02:16;;;;;;;4.00;3.40;;;;;;;8.18;100.00;101335.97;5069708;28;20240;-72
2022/02/08 11:04:59;;;;;;;5.20;2.90;;;;;;;8.18;100.00;101318.81;5069687;28;20174;-72
2022/02/08 11:10:44;;;;;;;3.73;3.43;;;;;;;8.19;100.00;101320.44;5071439;28;20170;-72
2022/02/08 11:15:57;;;;;;;2.93;2.67;;;;;;;8.19;100.00;101309.56;5073038;28;20182;-72
2022/02/08 11:21:04;;;;;;;5.20;4.70;;;;;;;8.25;100.00;101292.97;5073014;28;20181;-73
2022/02/08 11:23:49;;;;;;;3.23;3.03;;;;;;;8.31;100.00;101313.63;5073244;28;20245;-72
2022/02/08 11:26:39;;;;;;;9.33;3.97;;;;;;;8.30;100.00;101316.63;5072760;28;20189;-72
2022/02/08 11:29:08;;;;;;;5.10;2.93;;;;;;;8.31;100.00;101294.56;5072593;28;20265;-72
2022/02/08 11:31:38;;;;;;;3.13;2.47;;;;;;;8.32;100.00;101296.19;5072730;28;20570;-72
2022/02/08 11:47:47;;;;;;;3.33;2.93;;;;;;;8.34;100.00;101315.00;5070479;28;20179;-72
2022/02/08 12:01:22;;;;;;;2.13;2.03;;;;;;;8.31;100.00;101329.97;5073084;28;20182;-73
2022/02/08 12:08:51;;;;;;;3.17;2.87;;;;;;;8.31;100.00;101334.59;5072666;28;20197;-72
2022/02/08 12:35:40;;;;;;;4.70;4.30;;;;;;;8.44;100.00;101282.31;5071711;28;20186;-72
2022/02/08 12:51:58;;;;;;;2.77;2.57;;;;;;;8.59;100.00;101270.56;5071704;28;20208;-73
2022/02/08 14:02:04;;;;;;;6.50;3.77;;;;;;;8.49;100.00;101303.28;5070263;28;20181;-71
2022/02/08 14:09:40;;;;;;;4.50;3.77;;;;;;;8.49;100.00;101293.19;5070129;28;20236;-72
2022/02/08 14:14:51;;;;;;;4.63;3.53;;;;;;;8.50;100.00;101291.28;5070102;28;20209;-72
2022/02/08 14:26:00;;;;;;;3.43;3.13;;;;;;;8.46;100.00;101303.84;5068268;28;20197;-72
2022/02/08 14:31:37;;;;;;;10.03;6.13;;;;;;;8.35;100.00;101294.84;5069742;28;20177;-72
2022/02/08 14:36:59;;;;;;;4.77;4.27;;;;;;;8.33;100.00;101300.56;5069986;28;20262;-71
2022/02/08 14:59:47;;;;;;;5.37;4.87;;;;;;;8.16;100.00;101288.34;5073656;28;20236;-71
2022/02/08 15:07:09;;;;;;;5.27;4.57;;;;;;;8.24;100.00;101288.56;5073063;28;20208;-72
2022/02/08 15:09:37;;;;;;;2.63;2.53;;;;;;;8.28;100.00;101303.28;5072957;28;20656;-71
2022/02/08 15:14:31;;;;;;;2.30;2.07;;;;;;;8.30;100.00;101305.75;5073400;28;20253;-72
2022/02/08 15:16:57;;;;;;;4.70;3.90;;;;;;;8.31;100.00;101310.09;5073048;28;20170;-72
2022/02/08 15:19:23;;;;;;;2.37;2.20;;;;;;;8.29;100.00;101306.84;5073048;28;20698;-72
2022/02/08 15:21:48;;;;;;;3.43;3.13;;;;;;;8.29;100.00;101315.00;5072944;28;20182;-72
2022/02/08 15:24:14;;;;;;;5.50;5.00;;;;;;;8.29;100.00;101318.53;5072938;28;20239;-72
2022/02/08 15:26:46;;;;;;;3.20;3.00;;;;;;;8.28;100.00;101319.63;5072624;28;20185;-72
2022/02/08 15:29:12;;;;;;;3.47;1.80;;;;;;;8.30;100.00;101316.63;5071591;28;20175;-72
2022/02/08 15:31:38;;;;;;;4.50;4.20;;;;;;;8.28;100.00;101325.06;5072861;28;20170;-72
2022/02/08 15:34:03;;;;;;;4.00;2.40;;;;;;;8.27;100.00;101319.91;5072678;28;20198;-72
2022/02/08 15:36:30;;;;;;;6.17;4.43;;;;;;;8.28;100.00;101329.69;5072419;28;20229;-72
2022/02/08 15:39:01;;;;;;;5.23;3.03;;;;;;;8.27;100.00;101331.63;5072611;28;20697;-72
2022/02/08 15:41:27;;;;;;;4.33;3.97;;;;;;;8.26;100.00;101316.38;5072661;28;20550;-72
2022/02/08 15:43:53;;;;;;;2.67;2.47;;;;;;;8.25;100.00;101314.75;5072611;28;20171;-71
2022/02/08 15:46:23;;;;;;;3.00;2.73;;;;;;;8.24;100.00;101331.31;5072901;28;20170;-72
2022/02/08 15:48:50;;;;;;;4.00;3.70;;;;;;;8.20;100.00;101303.84;5072317;28;20177;-72
2022/02/08 16:07:08;;;;;;;3.00;2.80;;;;;;;8.14;100.00;101326.72;5072266;28;20208;-72
2022/02/08 16:14:59;;;;;;;7.73;4.33;;;;;;;8.21;100.00;101337.31;5072399;28;20604;-71
2022/02/08 16:25:44;;;;;;;4.10;3.80;;;;;;;8.20;100.00;101347.38;5071911;28;20566;-71
2022/02/08 16:52:44;;;;;;;3.63;3.33;;;;;;;8.02;100.00;101365.09;5071921;28;20174;-72
2022/02/08 16:55:21;;;;;;;5.37;4.97;;;;;;;8.03;100.00;101368.63;5070879;28;20210;-72
2022/02/08 17:00:30;;;;;;;3.17;2.97;;;;;;;8.08;100.00;101365.91;5071779;28;20622;-72
2022/02/08 17:03:00;;;;;;;4.07;3.77;;;;;;;8.08;100.00;101371.34;5071465;28;20178;-72
2022/02/08 17:05:26;;;;;;;11.90;5.27;;;;;;;8.08;100.00;101368.63;5071260;28;20231;-72
2022/02/08 17:07:51;;;;;;;8.27;7.57;;;;;;;8.09;100.00;101364.81;5071168;28;20179;-72
2022/02/08 17:13:03;;;;;;;4.67;4.37;;;;;;;8.11;100.00;101373.53;5071044;28;20535;-72
2022/02/08 17:47:43;;;;;;;2.27;2.17;;;;;;;8.00;100.00;101399.94;5071004;28;20170;-71
2022/02/08 17:50:14;;;;;;;7.67;6.70;;;;;;;7.98;100.00;101385.78;5070847;28;20170;-72
2022/02/08 17:52:41;;;;;;;4.50;4.10;;;;;;;7.98;100.00;101382.25;5069480;28;20171;-72
2022/02/08 17:55:08;;;;;;;3.67;3.47;;;;;;;7.97;100.00;101386.88;5070243;28;20209;-72
2022/02/08 17:57:33;;;;;;;4.67;4.27;;;;;;;7.97;100.00;101386.88;5070492;28;20174;-71
2022/02/08 17:59:59;;;;;;;3.67;3.43;;;;;;;7.98;100.00;101377.63;5070683;28;20702;-72
2022/02/08 18:02:25;;;;;;;2.50;2.30;;;;;;;7.99;100.00;101387.41;5070710;28;20187;-72
2022/02/08 18:04:53;;;;;;;4.30;3.90;;;;;;;7.99;100.00;101387.41;5070701;28;20171;-72
2022/02/08 18:07:21;;;;;;;2.87;2.70;;;;;;;7.99;100.00;101381.16;5070637;28;20192;-72
2022/02/08 18:09:48;;;;;;;4.17;3.77;;;;;;;7.99;100.00;101381.97;5070505;28;20174;-72
2022/02/08 18:12:13;;;;;;;2.17;2.07;;;;;;;8.02;100.00;101391.50;5070547;28;20278;-72
2022/02/08 18:14:41;;;;;;;3.47;3.17;;;;;;;8.01;100.00;101393.41;5070402;28;20717;-72
2022/02/08 18:17:12;;;;;;;3.90;2.80;;;;;;;8.00;100.00;101408.09;5070765;28;20258;-72
2022/02/08 18:19:40;;;;;;;3.87;3.63;;;;;;;8.00;100.00;101418.16;5071713;28;20169;-72
2022/02/08 18:25:02;;;;;;;6.07;5.57;;;;;;;8.03;100.00;101417.59;5073778;28;20178;-72
2022/02/08 19:07:54;;;;;;;4.57;3.13;;;;;;;8.01;100.00;101438.84;5073686;28;20593;-72
2022/02/08 19:18:46;;;;;;;2.03;1.93;;;;;;;7.98;100.00;101423.88;5073516;28;20174;-72
2022/02/08 19:23:45;;;;;;;2.37;2.17;;;;;;;7.98;100.00;101434.75;5073767;28;20161;-72
2022/02/08 19:26:12;;;;;;;2.07;1.97;;;;;;;7.98;100.00;101426.59;5073004;28;20193;-71
2022/02/08 19:28:37;;;;;;;0.60;0.60;;;;;;;7.99;100.00;101424.69;5073180;28;20179;-72
2022/02/08 19:31:03;;;;;;;2.90;2.70;;;;;;;7.98;100.00;101425.78;5073210;28;20650;-72
2022/02/08 19:33:28;;;;;;;1.00;1.00;;;;;;;7.98;100.00;101407.53;5073180;28;20268;-72
2022/02/08 19:35:54;;;;;;;1.20;1.20;;;;;;;7.96;100.00;101407.00;5067358;28;20240;-72
2022/02/08 19:38:21;;;;;;;2.03;1.93;;;;;;;7.98;100.00;101412.16;5071372;28;20205;-72
2022/02/08 19:40:47;;;;;;;4.10;3.70;;;;;;;8.00;100.00;101418.97;5070764;28;20189;-71